sensor_id;sensor_type;location;lat;lon;timestamp;P1;durP1;ratioP1;P2;durP2;ratioP2
58553;SDS011;48119;53.218;6.576;2023-03-08T00:02:25;2.28;;;1.27;;
58553;SDS011;48119;53.218;6.576;2023-03-08T00:04:54;2.65;;;1.17;;
58553;SDS011;48119;53.218;6.576;2023-03-08T00:07:21;3.78;;;1.20;;
58553;SDS011;48119;53.218;6.576;2023-03-08T00:09:56;6.07;;;1.38;;
58553;SDS011;48119;53.218;6.576;2023-03-08T00:12:21;2.63;;;1.10;;
58553;SDS011;48119;53.218;6.576;2023-03-08T00:14:48;2.80;;;1.60;;
58553;SDS011;48119;53.218;6.576;2023-03-08T00:17:14;4.07;;;1.27;;
58553;SDS011;48119;53.218;6.576;2023-03-08T00:19:41;3.15;;;1.20;;
58553;SDS011;48119;53.218;6.576;2023-03-08T00:22:07;3.58;;;1.23;;
58553;SDS011;48119;53.218;6.576;2023-03-08T00:24:34;2.53;;;1.42;;
58553;SDS011;48119;53.218;6.576;2023-03-08T00:26:59;4.90;;;2.30;;
58553;SDS011;48119;53.218;6.576;2023-03-08T00:29:25;3.65;;;1.83;;
58553;SDS011;48119;53.218;6.576;2023-03-08T00:31:51;3.38;;;1.63;;
58553;SDS011;48119;53.218;6.576;2023-03-08T00:34:17;3.03;;;1.92;;
58553;SDS011;48119;53.218;6.576;2023-03-08T00:36:43;2.03;;;1.20;;
58553;SDS011;48119;53.218;6.576;2023-03-08T00:39:10;5.15;;;1.10;;
58553;SDS011;48119;53.218;6.576;2023-03-08T00:41:36;5.18;;;2.08;;
58553;SDS011;48119;53.218;6.576;2023-03-08T00:44:02;4.00;;;1.10;;
58553;SDS011;48119;53.218;6.576;2023-03-08T00:46:28;1.92;;;0.80;;
58553;SDS011;48119;53.218;6.576;2023-03-08T00:48:54;1.63;;;1.02;;
58553;SDS011;48119;53.218;6.576;2023-03-08T00:51:22;2.65;;;0.98;;
58553;SDS011;48119;53.218;6.576;2023-03-08T00:53:49;4.07;;;0.93;;
58553;SDS011;48119;53.218;6.576;2023-03-08T00:56:15;3.95;;;1.70;;
58553;SDS011;48119;53.218;6.576;2023-03-08T00:58:42;2.08;;;0.90;;
58553;SDS011;48119;53.218;6.576;2023-03-08T01:01:10;2.83;;;1.00;;
58553;SDS011;48119;53.218;6.576;2023-03-08T01:03:39;1.77;;;0.88;;
58553;SDS011;48119;53.218;6.576;2023-03-08T01:06:10;2.67;;;1.20;;
58553;SDS011;48119;53.218;6.576;2023-03-08T01:08:38;3.75;;;1.98;;
58553;SDS011;48119;53.218;6.576;2023-03-08T01:11:11;2.22;;;1.08;;
58553;SDS011;48119;53.218;6.576;2023-03-08T01:13:40;3.47;;;1.23;;
58553;SDS011;48119;53.218;6.576;2023-03-08T01:16:13;2.88;;;1.13;;
58553;SDS011;48119;53.218;6.576;2023-03-08T01:18:40;4.05;;;1.20;;
58553;SDS011;48119;53.218;6.576;2023-03-08T01:21:06;2.35;;;1.00;;
58553;SDS011;48119;53.218;6.576;2023-03-08T01:23:32;3.53;;;0.98;;
58553;SDS011;48119;53.218;6.576;2023-03-08T01:26:09;5.85;;;1.30;;
58553;SDS011;48119;53.218;6.576;2023-03-08T01:32:28;5.88;;;1.33;;
58553;SDS011;48119;53.218;6.576;2023-03-08T01:35:22;3.00;;;1.05;;
58553;SDS011;48119;53.218;6.576;2023-03-08T01:38:54;2.88;;;0.98;;
58553;SDS011;48119;53.218;6.576;2023-03-08T01:41:45;4.05;;;1.30;;
58553;SDS011;48119;53.218;6.576;2023-03-08T01:44:15;2.67;;;0.82;;
58553;SDS011;48119;53.218;6.576;2023-03-08T01:46:42;3.63;;;1.58;;
58553;SDS011;48119;53.218;6.576;2023-03-08T01:54:16;3.22;;;0.90;;
58553;SDS011;48119;53.218;6.576;2023-03-08T01:56:46;1.48;;;0.75;;
58553;SDS011;48119;53.218;6.576;2023-03-08T01:59:14;2.88;;;0.98;;
58553;SDS011;48119;53.218;6.576;2023-03-08T02:01:41;5.00;;;0.85;;
58553;SDS011;48119;53.218;6.576;2023-03-08T02:04:07;4.50;;;1.92;;
58553;SDS011;48119;53.218;6.576;2023-03-08T02:06:35;1.98;;;0.90;;
58553;SDS011;48119;53.218;6.576;2023-03-08T02:09:01;1.85;;;0.93;;
58553;SDS011;48119;53.218;6.576;2023-03-08T02:11:28;2.00;;;0.88;;
58553;SDS011;48119;53.218;6.576;2023-03-08T02:13:55;2.25;;;1.05;;
58553;SDS011;48119;53.218;6.576;2023-03-08T02:16:21;2.65;;;0.68;;
58553;SDS011;48119;53.218;6.576;2023-03-08T02:18:48;1.45;;;0.80;;
58553;SDS011;48119;53.218;6.576;2023-03-08T02:21:18;1.63;;;0.60;;
58553;SDS011;48119;53.218;6.576;2023-03-08T02:23:44;2.03;;;0.90;;
58553;SDS011;48119;53.218;6.576;2023-03-08T02:26:10;2.15;;;0.82;;
58553;SDS011;48119;53.218;6.576;2023-03-08T02:28:36;2.05;;;0.73;;
58553;SDS011;48119;53.218;6.576;2023-03-08T02:31:01;3.65;;;1.13;;
58553;SDS011;48119;53.218;6.576;2023-03-08T02:33:27;2.08;;;0.80;;
58553;SDS011;48119;53.218;6.576;2023-03-08T02:35:57;1.80;;;0.60;;
58553;SDS011;48119;53.218;6.576;2023-03-08T02:38:25;2.28;;;0.50;;
58553;SDS011;48119;53.218;6.576;2023-03-08T02:40:50;1.40;;;0.50;;
58553;SDS011;48119;53.218;6.576;2023-03-08T02:43:17;2.63;;;1.00;;
58553;SDS011;48119;53.218;6.576;2023-03-08T02:45:43;1.95;;;0.90;;
58553;SDS011;48119;53.218;6.576;2023-03-08T02:48:09;1.85;;;0.70;;
58553;SDS011;48119;53.218;6.576;2023-03-08T02:50:35;3.10;;;0.65;;
58553;SDS011;48119;53.218;6.576;2023-03-08T02:53:02;3.08;;;0.90;;
58553;SDS011;48119;53.218;6.576;2023-03-08T02:55:29;2.15;;;0.55;;
58553;SDS011;48119;53.218;6.576;2023-03-08T02:57:54;1.90;;;0.80;;
58553;SDS011;48119;53.218;6.576;2023-03-08T03:00:20;2.25;;;1.13;;
58553;SDS011;48119;53.218;6.576;2023-03-08T03:02:46;3.55;;;1.00;;
58553;SDS011;48119;53.218;6.576;2023-03-08T03:05:12;4.13;;;1.00;;
58553;SDS011;48119;53.218;6.576;2023-03-08T03:07:39;3.25;;;0.98;;
58553;SDS011;48119;53.218;6.576;2023-03-08T03:10:09;5.07;;;0.95;;
58553;SDS011;48119;53.218;6.576;2023-03-08T03:12:37;2.97;;;0.75;;
58553;SDS011;48119;53.218;6.576;2023-03-08T03:15:04;2.78;;;0.93;;
58553;SDS011;48119;53.218;6.576;2023-03-08T03:17:31;8.25;;;1.27;;
58553;SDS011;48119;53.218;6.576;2023-03-08T03:19:57;1.70;;;0.85;;
58553;SDS011;48119;53.218;6.576;2023-03-08T03:22:23;2.67;;;0.85;;
58553;SDS011;48119;53.218;6.576;2023-03-08T03:24:49;4.25;;;1.63;;
58553;SDS011;48119;53.218;6.576;2023-03-08T03:27:16;2.83;;;0.57;;
58553;SDS011;48119;53.218;6.576;2023-03-08T03:29:42;2.08;;;1.00;;
58553;SDS011;48119;53.218;6.576;2023-03-08T03:32:08;3.58;;;1.20;;
58553;SDS011;48119;53.218;6.576;2023-03-08T03:34:35;7.03;;;1.05;;
58553;SDS011;48119;53.218;6.576;2023-03-08T03:37:01;1.45;;;0.68;;
58553;SDS011;48119;53.218;6.576;2023-03-08T03:39:26;3.67;;;1.40;;
58553;SDS011;48119;53.218;6.576;2023-03-08T03:41:58;2.28;;;1.02;;
58553;SDS011;48119;53.218;6.576;2023-03-08T03:44:24;3.53;;;1.20;;
58553;SDS011;48119;53.218;6.576;2023-03-08T03:46:49;5.75;;;1.23;;
58553;SDS011;48119;53.218;6.576;2023-03-08T03:49:15;2.17;;;0.80;;
58553;SDS011;48119;53.218;6.576;2023-03-08T03:51:41;2.45;;;0.75;;
58553;SDS011;48119;53.218;6.576;2023-03-08T03:54:06;2.03;;;1.13;;
58553;SDS011;48119;53.218;6.576;2023-03-08T03:56:32;5.72;;;1.23;;
58553;SDS011;48119;53.218;6.576;2023-03-08T03:58:58;2.60;;;1.10;;
58553;SDS011;48119;53.218;6.576;2023-03-08T04:01:25;1.25;;;0.80;;
58553;SDS011;48119;53.218;6.576;2023-03-08T04:03:53;2.90;;;0.80;;
58553;SDS011;48119;53.218;6.576;2023-03-08T04:06:20;3.63;;;0.90;;
58553;SDS011;48119;53.218;6.576;2023-03-08T04:08:48;1.70;;;0.70;;
58553;SDS011;48119;53.218;6.576;2023-03-08T04:11:18;1.80;;;0.73;;
58553;SDS011;48119;53.218;6.576;2023-03-08T04:13:45;1.98;;;0.57;;
58553;SDS011;48119;53.218;6.576;2023-03-08T04:16:16;4.18;;;0.70;;
58553;SDS011;48119;53.218;6.576;2023-03-08T04:18:53;1.98;;;0.95;;
58553;SDS011;48119;53.218;6.576;2023-03-08T04:21:21;5.10;;;0.77;;
58553;SDS011;48119;53.218;6.576;2023-03-08T04:23:47;3.10;;;1.00;;
58553;SDS011;48119;53.218;6.576;2023-03-08T04:26:13;2.70;;;0.73;;
58553;SDS011;48119;53.218;6.576;2023-03-08T04:28:42;2.15;;;0.80;;
58553;SDS011;48119;53.218;6.576;2023-03-08T04:31:15;3.05;;;0.85;;
58553;SDS011;48119;53.218;6.576;2023-03-08T04:33:42;3.28;;;1.02;;
58553;SDS011;48119;53.218;6.576;2023-03-08T04:36:09;5.22;;;0.93;;
58553;SDS011;48119;53.218;6.576;2023-03-08T04:38:35;2.42;;;0.70;;
58553;SDS011;48119;53.218;6.576;2023-03-08T04:41:01;4.70;;;0.90;;
58553;SDS011;48119;53.218;6.576;2023-03-08T04:43:36;3.13;;;0.93;;
58553;SDS011;48119;53.218;6.576;2023-03-08T04:46:03;2.22;;;0.77;;
58553;SDS011;48119;53.218;6.576;2023-03-08T04:48:29;3.08;;;0.80;;
58553;SDS011;48119;53.218;6.576;2023-03-08T04:50:56;1.85;;;0.75;;
58553;SDS011;48119;53.218;6.576;2023-03-08T04:53:24;2.03;;;0.60;;
58553;SDS011;48119;53.218;6.576;2023-03-08T04:55:51;2.50;;;0.70;;
58553;SDS011;48119;53.218;6.576;2023-03-08T04:58:17;2.42;;;0.80;;
58553;SDS011;48119;53.218;6.576;2023-03-08T05:00:43;0.65;;;0.40;;
58553;SDS011;48119;53.218;6.576;2023-03-08T05:03:09;1.85;;;0.70;;
58553;SDS011;48119;53.218;6.576;2023-03-08T05:05:34;1.42;;;0.60;;
58553;SDS011;48119;53.218;6.576;2023-03-08T05:08:00;2.88;;;1.00;;
58553;SDS011;48119;53.218;6.576;2023-03-08T05:10:30;2.40;;;0.73;;
58553;SDS011;48119;53.218;6.576;2023-03-08T05:12:56;0.80;;;0.47;;
58553;SDS011;48119;53.218;6.576;2023-03-08T05:15:22;4.40;;;1.10;;
58553;SDS011;48119;53.218;6.576;2023-03-08T05:17:48;2.78;;;0.80;;
58553;SDS011;48119;53.218;6.576;2023-03-08T05:20:14;2.30;;;0.63;;
58553;SDS011;48119;53.218;6.576;2023-03-08T05:22:40;2.20;;;0.90;;
58553;SDS011;48119;53.218;6.576;2023-03-08T05:25:07;3.03;;;1.10;;
58553;SDS011;48119;53.218;6.576;2023-03-08T05:27:33;2.55;;;0.70;;
58553;SDS011;48119;53.218;6.576;2023-03-08T05:29:59;1.83;;;0.52;;
58553;SDS011;48119;53.218;6.576;2023-03-08T05:32:25;1.75;;;0.70;;
58553;SDS011;48119;53.218;6.576;2023-03-08T05:34:51;3.35;;;0.73;;
58553;SDS011;48119;53.218;6.576;2023-03-08T05:37:17;4.07;;;1.15;;
58553;SDS011;48119;53.218;6.576;2023-03-08T05:39:43;1.50;;;1.05;;
58553;SDS011;48119;53.218;6.576;2023-03-08T05:42:09;2.25;;;1.15;;
58553;SDS011;48119;53.218;6.576;2023-03-08T05:44:36;2.67;;;1.13;;
58553;SDS011;48119;53.218;6.576;2023-03-08T05:47:02;4.93;;;1.23;;
58553;SDS011;48119;53.218;6.576;2023-03-08T05:49:28;2.70;;;0.90;;
58553;SDS011;48119;53.218;6.576;2023-03-08T05:51:54;3.83;;;0.98;;
58553;SDS011;48119;53.218;6.576;2023-03-08T05:54:20;5.28;;;0.85;;
58553;SDS011;48119;53.218;6.576;2023-03-08T05:56:46;1.67;;;1.17;;
58553;SDS011;48119;53.218;6.576;2023-03-08T05:59:11;5.65;;;1.27;;
58553;SDS011;48119;53.218;6.576;2023-03-08T06:01:37;2.05;;;1.00;;
58553;SDS011;48119;53.218;6.576;2023-03-08T06:04:03;2.15;;;1.00;;
58553;SDS011;48119;53.218;6.576;2023-03-08T06:06:29;3.38;;;1.38;;
58553;SDS011;48119;53.218;6.576;2023-03-08T06:08:55;2.40;;;1.00;;
58553;SDS011;48119;53.218;6.576;2023-03-08T06:11:21;4.13;;;1.42;;
58553;SDS011;48119;53.218;6.576;2023-03-08T06:13:47;3.22;;;1.08;;
58553;SDS011;48119;53.218;6.576;2023-03-08T06:16:13;3.97;;;1.38;;
58553;SDS011;48119;53.218;6.576;2023-03-08T06:18:39;1.90;;;1.00;;
58553;SDS011;48119;53.218;6.576;2023-03-08T06:21:13;2.83;;;0.95;;
58553;SDS011;48119;53.218;6.576;2023-03-08T06:23:41;2.08;;;0.85;;
58553;SDS011;48119;53.218;6.576;2023-03-08T06:26:08;2.88;;;1.20;;
58553;SDS011;48119;53.218;6.576;2023-03-08T06:28:34;4.45;;;1.30;;
58553;SDS011;48119;53.218;6.576;2023-03-08T06:31:01;1.73;;;1.30;;
58553;SDS011;48119;53.218;6.576;2023-03-08T06:33:28;4.40;;;1.30;;
58553;SDS011;48119;53.218;6.576;2023-03-08T06:35:56;3.00;;;1.33;;
58553;SDS011;48119;53.218;6.576;2023-03-08T06:38:22;5.78;;;1.65;;
58553;SDS011;48119;53.218;6.576;2023-03-08T06:40:48;2.55;;;1.13;;
58553;SDS011;48119;53.218;6.576;2023-03-08T06:43:14;2.08;;;1.17;;
58553;SDS011;48119;53.218;6.576;2023-03-08T06:45:40;3.60;;;1.45;;
58553;SDS011;48119;53.218;6.576;2023-03-08T06:48:06;3.13;;;1.00;;
58553;SDS011;48119;53.218;6.576;2023-03-08T06:50:32;7.82;;;1.33;;
58553;SDS011;48119;53.218;6.576;2023-03-08T06:52:58;3.67;;;1.17;;
58553;SDS011;48119;53.218;6.576;2023-03-08T06:55:23;3.03;;;1.20;;
58553;SDS011;48119;53.218;6.576;2023-03-08T06:57:49;4.88;;;1.73;;
58553;SDS011;48119;53.218;6.576;2023-03-08T07:00:15;1.73;;;1.10;;
58553;SDS011;48119;53.218;6.576;2023-03-08T07:02:42;3.95;;;1.50;;
58553;SDS011;48119;53.218;6.576;2023-03-08T07:05:07;3.03;;;1.30;;
58553;SDS011;48119;53.218;6.576;2023-03-08T07:07:34;4.32;;;1.40;;
58553;SDS011;48119;53.218;6.576;2023-03-08T07:10:01;2.78;;;1.08;;
58553;SDS011;48119;53.218;6.576;2023-03-08T07:12:28;1.98;;;1.30;;
58553;SDS011;48119;53.218;6.576;2023-03-08T07:14:56;2.60;;;1.33;;
58553;SDS011;48119;53.218;6.576;2023-03-08T07:17:23;2.53;;;1.42;;
58553;SDS011;48119;53.218;6.576;2023-03-08T07:19:49;4.65;;;1.73;;
58553;SDS011;48119;53.218;6.576;2023-03-08T07:22:14;4.38;;;1.75;;
58553;SDS011;48119;53.218;6.576;2023-03-08T07:24:40;2.05;;;1.20;;
58553;SDS011;48119;53.218;6.576;2023-03-08T07:27:06;2.15;;;1.30;;
58553;SDS011;48119;53.218;6.576;2023-03-08T07:29:32;3.10;;;1.95;;
58553;SDS011;48119;53.218;6.576;2023-03-08T07:31:57;4.38;;;1.88;;
58553;SDS011;48119;53.218;6.576;2023-03-08T07:34:23;4.60;;;2.28;;
58553;SDS011;48119;53.218;6.576;2023-03-08T07:36:49;5.57;;;1.95;;
58553;SDS011;48119;53.218;6.576;2023-03-08T07:39:15;2.85;;;2.03;;
58553;SDS011;48119;53.218;6.576;2023-03-08T07:41:41;2.83;;;1.70;;
58553;SDS011;48119;53.218;6.576;2023-03-08T07:44:07;4.10;;;2.30;;
58553;SDS011;48119;53.218;6.576;2023-03-08T07:46:32;4.78;;;2.55;;
58553;SDS011;48119;53.218;6.576;2023-03-08T07:48:58;4.18;;;1.80;;
58553;SDS011;48119;53.218;6.576;2023-03-08T07:51:24;4.13;;;2.42;;
58553;SDS011;48119;53.218;6.576;2023-03-08T07:53:50;3.72;;;2.30;;
58553;SDS011;48119;53.218;6.576;2023-03-08T07:56:16;6.25;;;3.42;;
58553;SDS011;48119;53.218;6.576;2023-03-08T07:58:42;3.30;;;1.95;;
58553;SDS011;48119;53.218;6.576;2023-03-08T08:01:09;4.50;;;2.22;;
58553;SDS011;48119;53.218;6.576;2023-03-08T08:03:36;4.00;;;2.22;;
58553;SDS011;48119;53.218;6.576;2023-03-08T08:06:03;3.85;;;2.05;;
58553;SDS011;48119;53.218;6.576;2023-03-08T08:08:29;4.13;;;2.03;;
58553;SDS011;48119;53.218;6.576;2023-03-08T08:10:55;3.42;;;2.17;;
58553;SDS011;48119;53.218;6.576;2023-03-08T08:13:21;4.47;;;2.10;;
58553;SDS011;48119;53.218;6.576;2023-03-08T08:15:51;4.63;;;2.47;;
58553;SDS011;48119;53.218;6.576;2023-03-08T08:18:25;4.55;;;2.20;;
58553;SDS011;48119;53.218;6.576;2023-03-08T08:20:58;6.65;;;3.20;;
58553;SDS011;48119;53.218;6.576;2023-03-08T08:23:25;4.03;;;2.38;;
58553;SDS011;48119;53.218;6.576;2023-03-08T08:25:51;10.77;;;2.83;;
58553;SDS011;48119;53.218;6.576;2023-03-08T08:28:17;5.63;;;2.72;;
58553;SDS011;48119;53.218;6.576;2023-03-08T08:30:43;8.32;;;3.67;;
58553;SDS011;48119;53.218;6.576;2023-03-08T08:33:09;7.13;;;2.70;;
58553;SDS011;48119;53.218;6.576;2023-03-08T08:35:38;6.40;;;2.85;;
58553;SDS011;48119;53.218;6.576;2023-03-08T08:38:04;4.40;;;2.55;;
58553;SDS011;48119;53.218;6.576;2023-03-08T08:40:29;6.07;;;2.80;;
58553;SDS011;48119;53.218;6.576;2023-03-08T08:42:55;2.95;;;2.40;;
58553;SDS011;48119;53.218;6.576;2023-03-08T08:45:21;7.28;;;2.28;;
58553;SDS011;48119;53.218;6.576;2023-03-08T08:47:47;7.80;;;2.63;;
58553;SDS011;48119;53.218;6.576;2023-03-08T08:50:12;5.25;;;2.60;;
58553;SDS011;48119;53.218;6.576;2023-03-08T08:52:38;7.53;;;2.60;;
58553;SDS011;48119;53.218;6.576;2023-03-08T08:55:04;7.88;;;2.83;;
58553;SDS011;48119;53.218;6.576;2023-03-08T08:57:30;5.45;;;2.85;;
58553;SDS011;48119;53.218;6.576;2023-03-08T08:59:56;7.72;;;2.58;;
58553;SDS011;48119;53.218;6.576;2023-03-08T09:02:21;3.65;;;2.30;;
58553;SDS011;48119;53.218;6.576;2023-03-08T09:04:48;4.13;;;2.30;;
58553;SDS011;48119;53.218;6.576;2023-03-08T09:07:14;4.15;;;2.05;;
58553;SDS011;48119;53.218;6.576;2023-03-08T09:09:40;3.47;;;2.08;;
58553;SDS011;48119;53.218;6.576;2023-03-08T09:12:05;8.23;;;2.97;;
58553;SDS011;48119;53.218;6.576;2023-03-08T09:14:32;6.72;;;2.75;;
58553;SDS011;48119;53.218;6.576;2023-03-08T09:16:58;5.50;;;2.35;;
58553;SDS011;48119;53.218;6.576;2023-03-08T09:19:24;5.25;;;2.88;;
58553;SDS011;48119;53.218;6.576;2023-03-08T09:21:50;4.43;;;2.70;;
58553;SDS011;48119;53.218;6.576;2023-03-08T09:24:16;6.70;;;3.10;;
58553;SDS011;48119;53.218;6.576;2023-03-08T09:26:41;4.13;;;2.50;;
58553;SDS011;48119;53.218;6.576;2023-03-08T09:29:08;5.45;;;2.83;;
58553;SDS011;48119;53.218;6.576;2023-03-08T09:31:36;6.03;;;2.88;;
58553;SDS011;48119;53.218;6.576;2023-03-08T09:34:02;3.60;;;2.05;;
58553;SDS011;48119;53.218;6.576;2023-03-08T09:36:32;5.63;;;2.50;;
58553;SDS011;48119;53.218;6.576;2023-03-08T09:38:59;2.70;;;1.92;;
58553;SDS011;48119;53.218;6.576;2023-03-08T09:44:55;3.55;;;1.88;;
58553;SDS011;48119;53.218;6.576;2023-03-08T09:47:06;2.92;;;2.03;;
58553;SDS011;48119;53.218;6.576;2023-03-08T09:49:41;7.57;;;2.25;;
58553;SDS011;48119;53.218;6.576;2023-03-08T09:52:20;3.85;;;2.40;;
58553;SDS011;48119;53.218;6.576;2023-03-08T09:54:53;4.57;;;2.17;;
58553;SDS011;48119;53.218;6.576;2023-03-08T09:57:24;5.80;;;2.03;;
58553;SDS011;48119;53.218;6.576;2023-03-08T09:59:54;4.70;;;2.72;;
58553;SDS011;48119;53.218;6.576;2023-03-08T10:08:11;7.15;;;2.42;;
58553;SDS011;48119;53.218;6.576;2023-03-08T10:16:20;6.00;;;2.58;;
58553;SDS011;48119;53.218;6.576;2023-03-08T10:21:24;4.55;;;2.17;;
58553;SDS011;48119;53.218;6.576;2023-03-08T10:23:57;3.42;;;2.33;;
58553;SDS011;48119;53.218;6.576;2023-03-08T10:26:43;5.45;;;2.15;;
58553;SDS011;48119;53.218;6.576;2023-03-08T10:29:12;5.65;;;1.90;;
58553;SDS011;48119;53.218;6.576;2023-03-08T10:31:38;4.53;;;2.00;;
58553;SDS011;48119;53.218;6.576;2023-03-08T10:36:33;5.95;;;2.15;;
58553;SDS011;48119;53.218;6.576;2023-03-08T10:39:06;5.55;;;2.00;;
58553;SDS011;48119;53.218;6.576;2023-03-08T10:41:44;4.82;;;2.22;;
58553;SDS011;48119;53.218;6.576;2023-03-08T10:45:18;2.60;;;2.05;;
58553;SDS011;48119;53.218;6.576;2023-03-08T10:52:33;3.90;;;1.70;;
58553;SDS011;48119;53.218;6.576;2023-03-08T11:00:55;4.80;;;1.75;;
58553;SDS011;48119;53.218;6.576;2023-03-08T11:03:25;7.43;;;2.25;;
58553;SDS011;48119;53.218;6.576;2023-03-08T11:08:30;3.95;;;1.55;;
58553;SDS011;48119;53.218;6.576;2023-03-08T11:11:08;3.63;;;1.25;;
58553;SDS011;48119;53.218;6.576;2023-03-08T11:13:37;7.53;;;1.40;;
58553;SDS011;48119;53.218;6.576;2023-03-08T11:21:22;3.08;;;1.50;;
58553;SDS011;48119;53.218;6.576;2023-03-08T11:24:10;5.63;;;1.88;;
58553;SDS011;48119;53.218;6.576;2023-03-08T11:26:52;8.45;;;1.98;;
58553;SDS011;48119;53.218;6.576;2023-03-08T11:38:24;4.13;;;1.13;;
58553;SDS011;48119;53.218;6.576;2023-03-08T12:02:33;4.32;;;0.88;;
58553;SDS011;48119;53.218;6.576;2023-03-08T12:05:11;3.92;;;0.75;;
58553;SDS011;48119;53.218;6.576;2023-03-08T12:07:51;4.45;;;1.35;;
58553;SDS011;48119;53.218;6.576;2023-03-08T12:10:27;2.42;;;1.40;;
58553;SDS011;48119;53.218;6.576;2023-03-08T12:13:19;3.80;;;1.10;;
58553;SDS011;48119;53.218;6.576;2023-03-08T12:16:07;4.93;;;1.45;;
58553;SDS011;48119;53.218;6.576;2023-03-08T12:21:51;3.38;;;1.35;;
58553;SDS011;48119;53.218;6.576;2023-03-08T12:27:22;6.20;;;1.33;;
58553;SDS011;48119;53.218;6.576;2023-03-08T12:32:53;2.15;;;1.08;;
58553;SDS011;48119;53.218;6.576;2023-03-08T12:35:31;3.17;;;1.13;;
58553;SDS011;48119;53.218;6.576;2023-03-08T12:38:05;2.85;;;0.90;;
58553;SDS011;48119;53.218;6.576;2023-03-08T12:40:55;4.03;;;1.63;;
58553;SDS011;48119;53.218;6.576;2023-03-08T12:43:41;4.22;;;1.52;;
58553;SDS011;48119;53.218;6.576;2023-03-08T12:46:10;3.67;;;1.23;;
58553;SDS011;48119;53.218;6.576;2023-03-08T12:56:24;10.00;;;1.63;;
58553;SDS011;48119;53.218;6.576;2023-03-08T13:01:39;3.70;;;1.17;;
58553;SDS011;48119;53.218;6.576;2023-03-08T13:09:29;5.07;;;1.30;;
58553;SDS011;48119;53.218;6.576;2023-03-08T13:12:00;4.95;;;1.67;;
58553;SDS011;48119;53.218;6.576;2023-03-08T13:22:45;2.45;;;0.85;;
58553;SDS011;48119;53.218;6.576;2023-03-08T13:25:27;3.13;;;1.13;;
58553;SDS011;48119;53.218;6.576;2023-03-08T13:28:05;3.45;;;0.80;;
58553;SDS011;48119;53.218;6.576;2023-03-08T13:30:52;4.55;;;1.23;;
58553;SDS011;48119;53.218;6.576;2023-03-08T13:33:24;3.35;;;1.20;;
58553;SDS011;48119;53.218;6.576;2023-03-08T13:38:41;2.60;;;1.13;;
58553;SDS011;48119;53.218;6.576;2023-03-08T13:41:07;2.75;;;1.17;;
58553;SDS011;48119;53.218;6.576;2023-03-08T13:43:33;4.45;;;1.63;;
58553;SDS011;48119;53.218;6.576;2023-03-08T13:46:04;1.90;;;0.95;;
58553;SDS011;48119;53.218;6.576;2023-03-08T13:48:35;1.75;;;0.95;;
58553;SDS011;48119;53.218;6.576;2023-03-08T13:51:01;7.75;;;1.50;;
58553;SDS011;48119;53.218;6.576;2023-03-08T13:53:28;4.47;;;0.98;;
58553;SDS011;48119;53.218;6.576;2023-03-08T13:56:01;6.88;;;1.10;;
58553;SDS011;48119;53.218;6.576;2023-03-08T13:58:37;4.20;;;1.38;;
58553;SDS011;48119;53.218;6.576;2023-03-08T14:01:14;4.95;;;1.08;;
58553;SDS011;48119;53.218;6.576;2023-03-08T14:03:43;3.53;;;1.10;;
58553;SDS011;48119;53.218;6.576;2023-03-08T14:06:20;2.13;;;0.82;;
58553;SDS011;48119;53.218;6.576;2023-03-08T14:08:50;3.22;;;1.02;;
58553;SDS011;48119;53.218;6.576;2023-03-08T14:11:20;2.90;;;0.90;;
58553;SDS011;48119;53.218;6.576;2023-03-08T14:13:52;2.58;;;1.25;;
58553;SDS011;48119;53.218;6.576;2023-03-08T14:16:32;2.92;;;0.98;;
58553;SDS011;48119;53.218;6.576;2023-03-08T14:19:07;3.42;;;1.05;;
58553;SDS011;48119;53.218;6.576;2023-03-08T14:21:45;2.63;;;0.90;;
58553;SDS011;48119;53.218;6.576;2023-03-08T14:24:14;3.97;;;1.10;;
58553;SDS011;48119;53.218;6.576;2023-03-08T14:26:52;4.72;;;1.58;;
58553;SDS011;48119;53.218;6.576;2023-03-08T14:29:29;4.07;;;1.52;;
58553;SDS011;48119;53.218;6.576;2023-03-08T14:34:45;3.20;;;1.00;;
58553;SDS011;48119;53.218;6.576;2023-03-08T14:37:28;6.13;;;1.60;;
58553;SDS011;48119;53.218;6.576;2023-03-08T14:42:45;3.08;;;1.30;;
58553;SDS011;48119;53.218;6.576;2023-03-08T14:48:13;2.83;;;1.27;;
58553;SDS011;48119;53.218;6.576;2023-03-08T14:50:49;2.33;;;1.30;;
58553;SDS011;48119;53.218;6.576;2023-03-08T14:53:24;4.70;;;1.63;;
58553;SDS011;48119;53.218;6.576;2023-03-08T14:56:00;4.47;;;1.60;;
58553;SDS011;48119;53.218;6.576;2023-03-08T14:58:30;3.75;;;1.65;;
58553;SDS011;48119;53.218;6.576;2023-03-08T15:00:58;3.13;;;1.52;;
58553;SDS011;48119;53.218;6.576;2023-03-08T15:03:26;3.90;;;1.38;;
58553;SDS011;48119;53.218;6.576;2023-03-08T15:05:55;6.53;;;1.30;;
58553;SDS011;48119;53.218;6.576;2023-03-08T15:08:22;4.15;;;1.13;;
58553;SDS011;48119;53.218;6.576;2023-03-08T15:10:49;3.10;;;1.40;;
58553;SDS011;48119;53.218;6.576;2023-03-08T15:13:19;2.95;;;1.10;;
58553;SDS011;48119;53.218;6.576;2023-03-08T15:15:46;3.75;;;1.15;;
58553;SDS011;48119;53.218;6.576;2023-03-08T15:18:13;2.20;;;1.10;;
58553;SDS011;48119;53.218;6.576;2023-03-08T15:20:39;3.15;;;1.30;;
58553;SDS011;48119;53.218;6.576;2023-03-08T15:23:12;4.75;;;1.40;;
58553;SDS011;48119;53.218;6.576;2023-03-08T15:25:49;3.50;;;2.00;;
58553;SDS011;48119;53.218;6.576;2023-03-08T15:28:15;3.67;;;1.67;;
58553;SDS011;48119;53.218;6.576;2023-03-08T15:30:42;3.90;;;1.70;;
58553;SDS011;48119;53.218;6.576;2023-03-08T15:33:09;6.93;;;2.33;;
58553;SDS011;48119;53.218;6.576;2023-03-08T15:35:35;3.35;;;1.88;;
58553;SDS011;48119;53.218;6.576;2023-03-08T15:38:02;4.72;;;2.22;;
58553;SDS011;48119;53.218;6.576;2023-03-08T15:40:30;4.35;;;2.33;;
58553;SDS011;48119;53.218;6.576;2023-03-08T15:43:02;5.47;;;2.10;;
58553;SDS011;48119;53.218;6.576;2023-03-08T15:45:30;3.10;;;1.90;;
58553;SDS011;48119;53.218;6.576;2023-03-08T15:47:56;5.38;;;2.28;;
58553;SDS011;48119;53.218;6.576;2023-03-08T15:50:30;3.90;;;2.10;;
58553;SDS011;48119;53.218;6.576;2023-03-08T15:52:57;6.20;;;3.35;;
58553;SDS011;48119;53.218;6.576;2023-03-08T15:55:26;2.92;;;1.52;;
58553;SDS011;48119;53.218;6.576;2023-03-08T15:57:53;4.35;;;2.17;;
58553;SDS011;48119;53.218;6.576;2023-03-08T16:00:20;3.50;;;1.70;;
58553;SDS011;48119;53.218;6.576;2023-03-08T16:02:46;5.07;;;1.80;;
58553;SDS011;48119;53.218;6.576;2023-03-08T16:05:14;3.58;;;2.10;;
58553;SDS011;48119;53.218;6.576;2023-03-08T16:07:40;8.70;;;3.10;;
58553;SDS011;48119;53.218;6.576;2023-03-08T16:10:08;6.60;;;2.70;;
58553;SDS011;48119;53.218;6.576;2023-03-08T16:12:36;4.68;;;2.33;;
58553;SDS011;48119;53.218;6.576;2023-03-08T16:15:02;4.25;;;1.90;;
58553;SDS011;48119;53.218;6.576;2023-03-08T16:17:29;4.32;;;2.13;;
58553;SDS011;48119;53.218;6.576;2023-03-08T16:19:58;5.55;;;2.47;;
58553;SDS011;48119;53.218;6.576;2023-03-08T16:22:25;3.95;;;2.40;;
58553;SDS011;48119;53.218;6.576;2023-03-08T16:24:51;3.35;;;2.25;;
58553;SDS011;48119;53.218;6.576;2023-03-08T16:27:19;3.90;;;2.33;;
58553;SDS011;48119;53.218;6.576;2023-03-08T16:29:48;4.90;;;2.70;;
58553;SDS011;48119;53.218;6.576;2023-03-08T16:32:18;5.40;;;2.63;;
58553;SDS011;48119;53.218;6.576;2023-03-08T16:34:44;4.32;;;2.38;;
58553;SDS011;48119;53.218;6.576;2023-03-08T16:37:19;5.88;;;2.65;;
58553;SDS011;48119;53.218;6.576;2023-03-08T16:39:47;5.07;;;2.58;;
58553;SDS011;48119;53.218;6.576;2023-03-08T16:42:13;21.42;;;3.45;;
58553;SDS011;48119;53.218;6.576;2023-03-08T16:44:50;4.65;;;2.85;;
58553;SDS011;48119;53.218;6.576;2023-03-08T16:47:20;5.43;;;2.95;;
58553;SDS011;48119;53.218;6.576;2023-03-08T16:49:47;4.28;;;2.95;;
58553;SDS011;48119;53.218;6.576;2023-03-08T16:52:13;4.28;;;2.75;;
58553;SDS011;48119;53.218;6.576;2023-03-08T16:54:40;7.25;;;3.60;;
58553;SDS011;48119;53.218;6.576;2023-03-08T16:57:07;8.23;;;3.53;;
58553;SDS011;48119;53.218;6.576;2023-03-08T16:59:37;5.18;;;3.00;;
58553;SDS011;48119;53.218;6.576;2023-03-08T17:02:04;5.47;;;2.53;;